Time;durP1;ratioP1;P1;durP2;ratioP2;P2;SDS_P1;SDS_P2;PMS_P1;PMS_P2;Temp;Humidity;BMP_temperature;BMP_pressure;BME280_temperature;BME280_humidity;BME280_pressure;Samples;Min_cycle;Max_cycle;Signal;HPM_P1;HPM_P2
2021/12/04 11:38:47;;;;;;;11.93;11.53;;;10.90;99.90;;;;;;5059878;28;20449;-72
2021/12/04 11:44:04;;;;;;;11.30;10.90;;;11.10;99.90;;;;;;5060335;28;20523;-75
2021/12/04 11:46:43;;;;;;;11.33;10.93;;;11.20;99.90;;;;;;5067340;28;20500;-76
2021/12/04 11:49:14;;;;;;;10.93;10.53;;;11.20;99.90;;;;;;5067064;28;20459;-73
2021/12/04 11:51:55;;;;;;;10.97;10.67;;;11.30;99.90;;;;;;5066745;28;20458;-73
2021/12/04 11:54:22;;;;;;;10.77;10.47;;;11.30;99.90;;;;;;5066332;28;20564;-73
2021/12/04 11:56:59;;;;;;;11.00;10.47;;;11.40;99.90;;;;;;5066327;28;20466;-74
2021/12/04 11:59:31;;;;;;;9.97;9.67;;;11.30;99.90;;;;;;5066426;28;20454;-73
2021/12/04 12:02:00;;;;;;;10.33;10.03;;;11.40;99.90;;;;;;5066195;28;20454;-72
2021/12/04 12:04:34;;;;;;;11.13;10.80;;;11.50;99.90;;;;;;5065912;28;20457;-72
2021/12/04 12:07:10;;;;;;;11.10;10.80;;;11.60;99.90;;;;;;5066179;28;20514;-72
2021/12/04 12:09:39;;;;;;;11.00;10.70;;;11.70;99.90;;;;;;5065810;28;20481;-72
2021/12/04 12:12:09;;;;;;;10.37;10.07;;;11.70;99.90;;;;;;5065567;28;20498;-72
2021/12/04 12:14:43;;;;;;;10.70;10.40;;;11.60;99.90;;;;;;5065421;28;20896;-73
2021/12/04 12:17:11;;;;;;;10.73;10.43;;;11.80;99.90;;;;;;5065811;28;20504;-72
2021/12/04 12:19:40;;;;;;;10.97;10.57;;;11.80;99.90;;;;;;5065642;28;20463;-72
2021/12/04 12:22:17;;;;;;;10.33;10.03;;;11.80;99.90;;;;;;5065484;28;20965;-72
2021/12/04 12:24:56;;;;;;;10.33;9.93;;;11.70;99.90;;;;;;5065741;28;20454;-72
2021/12/04 12:27:42;;;;;;;11.20;10.80;;;11.70;99.90;;;;;;5065403;28;20494;-72
2021/12/04 12:33:16;;;;;;;11.13;10.73;;;11.70;99.90;;;;;;5065601;28;20447;-72
2021/12/04 12:36:03;;;;;;;11.50;11.20;;;11.60;99.90;;;;;;5065619;28;20999;-72
2021/12/04 12:38:51;;;;;;;10.43;10.13;;;11.50;99.90;;;;;;5054574;28;20452;-72
2021/12/04 12:41:29;;;;;;;11.13;10.83;;;11.50;99.90;;;;;;5051947;28;20451;-72
2021/12/04 12:44:04;;;;;;;11.40;11.00;;;11.60;99.90;;;;;;5052057;28;20443;-72
2021/12/04 12:46:40;;;;;;;11.00;10.70;;;11.60;99.90;;;;;;5051927;28;20491;-72
2021/12/04 12:49:18;;;;;;;11.20;10.90;;;11.50;99.90;;;;;;5051832;28;20989;-71
2021/12/04 12:51:54;;;;;;;10.80;10.50;;;11.60;99.90;;;;;;5051961;28;20573;-72
2021/12/04 12:54:25;;;;;;;12.00;11.60;;;11.60;99.90;;;;;;5051596;28;20444;-71
2021/12/04 12:57:00;;;;;;;11.97;11.57;;;11.60;99.90;;;;;;5051559;28;20555;-71
2021/12/04 12:59:37;;;;;;;11.80;11.40;;;11.50;99.90;;;;;;5051506;28;20478;-73
2021/12/04 13:13:28;;;;;;;12.10;11.70;;;11.20;99.90;;;;;;5051643;28;20432;-72
2021/12/04 13:16:01;;;;;;;12.30;11.90;;;11.20;99.90;;;;;;5050741;28;20447;-73
2021/12/04 13:18:30;;;;;;;11.67;11.37;;;11.20;99.90;;;;;;5040620;28;20505;-73
2021/12/04 13:21:02;;;;;;;12.20;11.80;;;11.30;99.90;;;;;;5038882;28;20472;-72
2021/12/04 13:23:29;;;;;;;15.73;15.23;;;11.20;99.90;;;;;;5039656;28;20988;-72
2021/12/04 13:25:58;;;;;;;15.80;15.30;;;11.10;99.90;;;;;;5040805;28;20483;-73
2021/12/04 13:28:27;;;;;;;15.80;15.30;;;10.90;99.90;;;;;;5039628;28;20462;-73
2021/12/04 13:30:54;;;;;;;15.33;14.83;;;10.80;99.90;;;;;;5038767;28;20803;-74
2021/12/04 13:33:21;;;;;;;15.20;14.70;;;10.80;99.90;;;;;;5040361;28;20455;-73
2021/12/04 13:35:49;;;;;;;14.77;14.27;;;10.80;99.90;;;;;;5040193;28;20781;-73
2021/12/04 13:38:17;;;;;;;14.70;14.20;;;10.80;99.90;;;;;;5038940;28;20452;-73
2021/12/04 13:40:48;;;;;;;15.37;14.77;;;10.90;99.90;;;;;;5040566;28;20452;-73
2021/12/04 13:43:17;;;;;;;15.57;14.97;;;10.80;99.90;;;;;;5039516;28;20497;-73
2021/12/04 13:45:45;;;;;;;14.90;14.20;;;10.80;99.90;;;;;;5040616;28;20459;-72
2021/12/04 13:48:12;;;;;;;14.93;14.33;;;10.80;99.90;;;;;;5035507;28;20537;-73
2021/12/04 13:50:46;;;;;;;14.20;13.70;;;10.80;99.90;;;;;;5029781;28;20461;-73
2021/12/04 13:53:21;;;;;;;14.63;14.13;;;10.80;99.90;;;;;;5030763;28;20853;-73
2021/12/04 13:55:51;;;;;;;13.87;13.47;;;10.80;99.90;;;;;;5039269;28;20448;-72
2021/12/04 13:58:18;;;;;;;13.70;13.30;;;10.80;99.90;;;;;;5038230;28;20445;-72
2021/12/04 14:00:46;;;;;;;13.00;12.60;;;10.80;99.90;;;;;;5040197;28;20452;-73
2021/12/04 14:03:14;;;;;;;14.07;13.57;;;10.80;99.90;;;;;;5039876;28;20463;-72
2021/12/04 14:05:41;;;;;;;15.17;14.67;;;10.70;99.90;;;;;;5038158;28;20447;-72
2021/12/04 14:08:10;;;;;;;20.70;19.77;;;10.70;99.90;;;;;;5039445;28;20479;-74
2021/12/04 14:10:42;;;;;;;22.67;21.87;;;10.70;99.90;;;;;;5040045;28;20459;-75
2021/12/04 14:13:10;;;;;;;24.07;23.00;;;10.50;99.90;;;;;;5039240;28;20441;-75
2021/12/04 14:15:37;;;;;;;23.43;22.63;;;10.40;99.90;;;;;;5041114;28;20821;-74
2021/12/04 14:18:06;;;;;;;23.90;23.00;;;10.30;99.90;;;;;;5045658;28;20452;-74
2021/12/04 14:20:35;;;;;;;23.40;22.60;;;10.20;99.90;;;;;;5039694;28;20456;-74
2021/12/04 14:23:03;;;;;;;23.80;22.70;;;10.10;99.90;;;;;;5038028;28;20472;-73
2021/12/04 14:25:30;;;;;;;24.87;23.93;;;10.10;99.90;;;;;;5031746;28;20481;-75
2021/12/04 14:28:00;;;;;;;24.33;23.43;;;10.10;99.90;;;;;;5030067;28;20487;-74
2021/12/04 14:30:32;;;;;;;23.10;22.23;;;10.10;99.90;;;;;;5031914;28;20451;-73
2021/12/04 14:32:59;;;;;;;23.60;22.60;;;10.00;99.90;;;;;;5030573;28;20449;-73
2021/12/04 14:35:28;;;;;;;23.87;22.97;;;10.00;99.90;;;;;;5029963;28;20453;-73
2021/12/04 14:37:58;;;;;;;23.07;22.17;;;10.00;99.90;;;;;;5029922;28;20456;-73
2021/12/04 14:40:28;;;;;;;22.47;21.67;;;10.00;99.90;;;;;;5030168;28;20445;-72
2021/12/04 14:42:55;;;;;;;23.70;22.60;;;10.00;99.90;;;;;;5029972;28;20451;-73
2021/12/04 14:45:26;;;;;;;22.20;21.40;;;10.00;99.90;;;;;;5029896;28;20560;-73
2021/12/04 14:48:01;;;;;;;21.47;20.60;;;10.00;99.90;;;;;;5029778;28;20851;-72
2021/12/04 14:50:28;;;;;;;21.70;20.80;;;9.90;99.90;;;;;;5030063;28;20444;-72
2021/12/04 14:52:57;;;;;;;20.70;19.90;;;9.90;99.90;;;;;;5029757;28;20445;-72
2021/12/04 14:55:26;;;;;;;20.43;19.73;;;9.90;99.90;;;;;;5029699;28;20799;-72
2021/12/04 14:57:53;;;;;;;19.70;19.00;;;9.90;99.90;;;;;;5029368;28;20484;-73
2021/12/04 15:00:25;;;;;;;20.60;19.73;;;9.90;99.90;;;;;;5029339;28;20451;-71
2021/12/04 15:02:54;;;;;;;20.93;20.13;;;9.90;99.90;;;;;;5029653;28;20457;-73
2021/12/04 15:05:40;;;;;;;20.30;19.60;;;9.90;99.90;;;;;;5029582;28;20453;-72
2021/12/04 15:08:09;;;;;;;21.17;20.27;;;9.90;99.90;;;;;;5029452;28;20598;-72
2021/12/04 15:10:37;;;;;;;22.33;21.53;;;9.90;99.90;;;;;;5029607;28;20802;-73
2021/12/04 15:13:06;;;;;;;21.83;21.03;;;10.00;99.90;;;;;;5029544;28;20445;-73
2021/12/04 15:15:37;;;;;;;22.20;21.40;;;9.90;99.90;;;;;;5029497;28;20452;-73
2021/12/04 15:18:10;;;;;;;23.00;22.10;;;9.90;99.90;;;;;;5027553;28;20460;-73
2021/12/04 15:20:42;;;;;;;21.50;20.60;;;9.90;99.90;;;;;;5029749;28;20502;-72
2021/12/04 15:23:13;;;;;;;20.87;20.07;;;9.90;99.90;;;;;;5029698;28;20523;-73
2021/12/04 15:25:41;;;;;;;21.33;20.50;;;9.80;99.90;;;;;;5029771;28;20489;-72
2021/12/04 15:28:16;;;;;;;21.60;20.70;;;9.80;99.90;;;;;;5029792;28;20500;-73
2021/12/04 15:30:46;;;;;;;20.50;19.60;;;9.80;99.90;;;;;;5029956;28;20444;-73
2021/12/04 15:33:24;;;;;;;20.50;19.70;;;9.80;99.90;;;;;;5029807;28;20466;-74
2021/12/04 15:35:51;;;;;;;20.63;19.73;;;9.80;99.90;;;;;;5029644;28;20492;-72
2021/12/04 15:38:34;;;;;;;20.20;19.40;;;9.70;99.90;;;;;;5029821;28;20876;-72
2021/12/04 15:41:07;;;;;;;20.63;19.83;;;9.80;99.90;;;;;;5029808;28;20454;-72
2021/12/04 15:43:40;;;;;;;20.00;19.30;;;9.80;99.90;;;;;;5029699;28;20552;-72
2021/12/04 15:46:16;;;;;;;19.90;19.10;;;9.80;99.90;;;;;;5029489;28;20518;-73
2021/12/04 15:49:10;;;;;;;18.13;17.43;;;9.80;99.90;;;;;;5029724;28;21001;-73
2021/12/04 15:52:45;;;;;;;19.23;18.40;;;9.80;99.90;;;;;;5029344;28;20661;-71
2021/12/04 15:54:52;;;;;;;17.30;16.70;;;9.90;99.90;;;;;;5029295;28;20444;-72
2021/12/04 15:57:21;;;;;;;19.43;18.10;;;9.90;99.90;;;;;;5029377;28;20461;-72
2021/12/04 15:59:52;;;;;;;16.10;15.50;;;9.90;99.90;;;;;;5029488;28;20453;-72
2021/12/04 16:02:30;;;;;;;15.83;15.23;;;9.90;99.90;;;;;;5029537;28;20452;-71
2021/12/04 16:05:06;;;;;;;14.90;14.40;;;9.90;99.90;;;;;;5029336;28;20538;-71
2021/12/04 16:07:33;;;;;;;14.80;14.30;;;9.90;99.90;;;;;;5029356;28;20493;-72
2021/12/04 16:10:07;;;;;;;14.13;13.63;;;9.90;99.90;;;;;;5029433;28;20544;-72
2021/12/04 16:12:36;;;;;;;15.00;14.40;;;10.00;99.90;;;;;;5030202;28;20484;-72
2021/12/04 16:15:04;;;;;;;14.40;13.80;;;10.00;99.90;;;;;;5033080;28;20556;-71
2021/12/04 16:17:32;;;;;;;13.70;13.20;;;10.00;99.90;;;;;;5031371;28;20513;-72
2021/12/04 16:20:05;;;;;;;13.70;13.10;;;10.00;99.90;;;;;;5032926;28;20455;-71
2021/12/04 16:22:37;;;;;;;13.50;13.00;;;10.00;99.90;;;;;;5033088;28;20563;-72
2021/12/04 16:25:06;;;;;;;13.50;13.00;;;10.00;99.90;;;;;;5032827;28;20463;-72
2021/12/04 16:27:37;;;;;;;13.57;13.07;;;10.00;99.90;;;;;;5033006;28;20484;-71
2021/12/04 16:30:23;;;;;;;12.80;12.30;;;10.00;99.90;;;;;;5032745;28;20455;-71
2021/12/04 16:32:59;;;;;;;12.83;12.43;;;10.00;99.90;;;;;;5032594;28;20793;-71
2021/12/04 16:35:39;;;;;;;13.23;12.73;;;10.00;99.90;;;;;;5032737;28;20514;-72
2021/12/04 16:38:13;;;;;;;13.13;12.67;;;9.90;99.90;;;;;;5032323;28;20506;-73
2021/12/04 16:40:43;;;;;;;13.00;12.60;;;9.90;99.90;;;;;;5032789;28;20453;-72
2021/12/04 16:43:14;;;;;;;13.40;12.90;;;9.90;99.90;;;;;;5032520;28;20528;-72
2021/12/04 16:45:44;;;;;;;13.17;12.67;;;9.90;99.90;;;;;;5032561;28;20449;-72
2021/12/04 16:48:13;;;;;;;13.20;12.80;;;9.80;99.90;;;;;;5032406;28;20484;-71
2021/12/04 16:56:28;;;;;;;13.03;12.53;;;9.90;99.90;;;;;;5032737;28;20475;-72
2021/12/04 16:58:57;;;;;;;13.37;12.87;;;10.00;99.90;;;;;;5032375;28;20515;-72
2021/12/04 17:01:25;;;;;;;12.23;11.83;;;10.00;99.90;;;;;;5032283;28;20884;-72
2021/12/04 17:03:54;;;;;;;13.00;12.50;;;10.10;99.90;;;;;;5036965;28;20781;-72
2021/12/04 17:06:22;;;;;;;13.00;12.50;;;10.10;99.90;;;;;;5040170;28;20438;-72
2021/12/04 17:08:49;;;;;;;12.60;12.10;;;10.10;99.90;;;;;;5040543;28;20476;-72
2021/12/04 17:11:16;;;;;;;12.60;12.20;;;10.10;99.90;;;;;;5042137;28;20448;-72
2021/12/04 17:13:43;;;;;;;12.30;11.80;;;10.20;99.90;;;;;;5040440;28;20458;-71
2021/12/04 17:16:11;;;;;;;13.10;12.60;;;10.30;99.90;;;;;;5040119;28;20445;-72
2021/12/04 17:18:46;;;;;;;12.63;12.23;;;10.40;99.90;;;;;;5041689;28;20449;-71
2021/12/04 17:21:15;;;;;;;12.20;11.80;;;10.40;99.90;;;;;;5044704;28;20518;-72
2021/12/04 17:23:42;;;;;;;13.37;12.77;;;10.40;99.90;;;;;;5043168;28;20468;-71
2021/12/04 17:26:09;;;;;;;12.63;12.23;;;10.40;99.90;;;;;;5041083;28;20812;-72
2021/12/04 17:28:42;;;;;;;12.60;11.80;;;10.40;99.90;;;;;;5039585;28;20488;-72
2021/12/04 17:31:09;;;;;;;12.83;12.33;;;10.30;99.90;;;;;;5039318;28;20445;-71
2021/12/04 17:33:36;;;;;;;12.93;12.43;;;10.30;99.90;;;;;;5031374;28;20456;-72
2021/12/04 17:36:03;;;;;;;13.73;12.90;;;10.10;99.90;;;;;;5031616;28;20526;-72
2021/12/04 17:38:31;;;;;;;13.10;12.43;;;10.00;99.90;;;;;;5031451;28;20958;-73
2021/12/04 17:40:57;;;;;;;13.80;13.20;;;10.10;99.90;;;;;;5039793;28;20473;-71
2021/12/04 17:43:24;;;;;;;13.83;13.23;;;10.10;99.90;;;;;;5039964;28;20452;-72
2021/12/04 17:45:51;;;;;;;13.40;12.90;;;10.20;99.90;;;;;;5040989;28;20447;-73
2021/12/04 17:48:17;;;;;;;13.00;12.50;;;10.20;99.90;;;;;;5039238;28;20481;-72
2021/12/04 17:50:44;;;;;;;13.33;12.60;;;10.10;99.90;;;;;;5040272;28;20448;-72
2021/12/04 17:53:12;;;;;;;12.83;12.33;;;10.10;99.90;;;;;;5041080;28;20460;-71
2021/12/04 17:55:40;;;;;;;12.87;12.37;;;10.00;99.90;;;;;;5038391;28;20463;-73
2021/12/04 17:58:07;;;;;;;13.57;12.80;;;10.10;99.90;;;;;;5040538;28;20455;-72
2021/12/04 18:00:38;;;;;;;14.07;13.47;;;10.20;99.90;;;;;;5038159;28;20459;-73
2021/12/04 18:03:06;;;;;;;12.20;11.70;;;10.20;99.90;;;;;;5041435;28;20536;-71
2021/12/04 18:05:34;;;;;;;12.50;11.90;;;10.10;99.90;;;;;;5051050;28;20448;-73
2021/12/04 18:08:02;;;;;;;11.90;11.40;;;10.20;99.90;;;;;;5050929;28;21013;-74
2021/12/04 18:10:33;;;;;;;11.50;11.10;;;10.20;99.90;;;;;;5051134;28;20455;-71
2021/12/04 18:13:05;;;;;;;11.80;11.40;;;10.20;99.90;;;;;;5051083;28;20453;-71
2021/12/04 18:15:35;;;;;;;11.43;11.03;;;10.10;99.90;;;;;;5050728;28;20963;-72
2021/12/04 18:18:03;;;;;;;12.00;11.60;;;10.20;99.90;;;;;;5050760;28;20452;-71
2021/12/04 18:20:30;;;;;;;11.40;11.00;;;10.20;99.90;;;;;;5050420;28;20456;-72
2021/12/04 18:22:58;;;;;;;11.20;10.80;;;10.10;99.90;;;;;;5050458;28;20477;-71
2021/12/04 18:25:25;;;;;;;10.60;10.20;;;9.90;99.90;;;;;;5050237;28;20452;-72
2021/12/04 18:27:54;;;;;;;10.67;10.37;;;9.80;99.90;;;;;;5050134;28;20835;-73
2021/12/04 18:30:24;;;;;;;10.83;10.43;;;9.70;99.90;;;;;;5040608;28;21000;-72
2021/12/04 18:32:51;;;;;;;10.67;10.37;;;9.70;99.90;;;;;;5039097;28;20449;-72
2021/12/04 18:35:20;;;;;;;10.80;10.40;;;9.60;99.90;;;;;;5037780;28;20458;-72
2021/12/04 18:37:48;;;;;;;10.33;9.93;;;9.50;99.90;;;;;;5036413;28;20449;-73
2021/12/04 18:40:17;;;;;;;10.70;10.40;;;9.50;99.90;;;;;;5036629;28;20452;-72
2021/12/04 18:42:44;;;;;;;11.60;11.10;;;9.40;99.90;;;;;;5039921;28;20449;-72
2021/12/04 18:45:13;;;;;;;10.70;10.30;;;9.30;99.90;;;;;;5038595;28;20452;-72
2021/12/04 18:47:41;;;;;;;10.63;10.30;;;9.30;99.90;;;;;;5040039;28;20494;-72
2021/12/04 18:50:12;;;;;;;11.10;10.70;;;9.30;99.90;;;;;;5047172;28;20445;-72
2021/12/04 18:52:39;;;;;;;10.80;10.50;;;9.30;99.90;;;;;;5049814;28;20455;-71
2021/12/04 18:55:07;;;;;;;10.40;10.10;;;9.30;99.90;;;;;;5049903;28;20459;-72
2021/12/04 18:57:34;;;;;;;10.33;10.03;;;9.30;99.90;;;;;;5049650;28;20976;-72
2021/12/04 19:00:01;;;;;;;10.87;10.47;;;9.20;99.90;;;;;;5049900;28;20823;-74
2021/12/04 19:02:30;;;;;;;10.93;10.53;;;9.10;99.90;;;;;;5049814;28;20441;-71
2021/12/04 19:04:58;;;;;;;12.70;12.10;;;9.10;99.90;;;;;;5038329;28;20452;-71
2021/12/04 19:07:24;;;;;;;11.40;11.00;;;9.10;99.90;;;;;;5036905;28;20474;-71
2021/12/04 19:09:51;;;;;;;11.10;10.70;;;9.00;99.90;;;;;;5038737;28;20805;-73
2021/12/04 19:12:19;;;;;;;11.23;10.73;;;9.00;99.90;;;;;;5038934;28;20453;-71
2021/12/04 19:14:46;;;;;;;11.20;10.80;;;9.00;99.90;;;;;;5036979;28;20452;-71
2021/12/04 19:17:15;;;;;;;11.33;10.93;;;9.00;99.90;;;;;;5039056;28;20955;-71
2021/12/04 19:19:43;;;;;;;11.63;11.13;;;8.90;99.90;;;;;;5040155;28;20445;-71
2021/12/04 19:22:11;;;;;;;11.13;10.73;;;8.90;99.90;;;;;;5050110;28;20526;-72
2021/12/04 19:24:38;;;;;;;10.47;10.17;;;8.80;99.90;;;;;;5050180;28;20460;-72
2021/12/04 19:27:06;;;;;;;11.10;10.70;;;8.80;99.90;;;;;;5049965;28;20495;-71
2021/12/04 19:29:36;;;;;;;11.47;10.90;;;8.80;99.90;;;;;;5050297;28;20490;-70
2021/12/04 19:32:10;;;;;;;11.00;10.60;;;8.80;99.90;;;;;;5050015;28;20513;-71
2021/12/04 19:34:57;;;;;;;10.50;10.10;;;8.80;99.90;;;;;;5049910;28;20459;-73
2021/12/04 19:48:53;;;;;;;11.90;11.30;;;8.70;99.90;;;;;;5052363;28;20506;-70
2021/12/04 19:51:20;;;;;;;12.87;12.20;;;8.60;99.90;;;;;;5053827;28;20564;-72
2021/12/04 19:54:00;;;;;;;11.00;10.70;;;8.40;99.90;;;;;;5053935;28;20447;-73
2021/12/04 19:56:32;;;;;;;12.53;12.10;;;8.30;99.90;;;;;;5053887;28;20475;-71
2021/12/04 19:59:00;;;;;;;12.40;11.90;;;8.10;99.90;;;;;;5053992;28;20529;-73
2021/12/04 20:01:35;;;;;;;12.90;12.40;;;8.00;99.90;;;;;;5053950;28;20838;-72
2021/12/04 20:04:17;;;;;;;12.70;12.20;;;8.00;99.90;;;;;;5053754;28;20470;-72
2021/12/04 20:06:54;;;;;;;12.70;12.23;;;7.80;99.90;;;;;;5053118;28;20455;-72
2021/12/04 20:14:54;;;;;;;12.67;12.17;;;7.70;99.90;;;;;;5052972;28;20468;-72
2021/12/04 20:17:22;;;;;;;13.10;12.43;;;7.70;99.90;;;;;;5053107;28;20547;-72
2021/12/04 20:19:49;;;;;;;12.27;11.77;;;7.60;99.90;;;;;;5052581;28;20555;-73
2021/12/04 20:22:15;;;;;;;13.57;12.77;;;7.60;99.90;;;;;;5052889;28;20467;-73
2021/12/04 20:24:50;;;;;;;11.43;11.03;;;7.60;99.90;;;;;;5051089;28;20459;-73
2021/12/04 20:27:18;;;;;;;12.13;11.73;;;7.60;99.90;;;;;;5052842;28;20918;-74
2021/12/04 20:32:44;;;;;;;12.90;12.50;;;7.60;99.90;;;;;;5046672;28;20454;-72
2021/12/04 20:38:32;;;;;;;14.30;13.70;;;7.50;99.90;;;;;;5051503;28;20435;-71
2021/12/04 20:52:32;;;;;;;16.60;15.90;;;7.20;99.90;;;;;;4990763;28;20462;-71
2021/12/04 21:39:08;;;;;;;14.33;13.43;;;6.40;99.90;;;;;;5042461;28;20478;-72
2021/12/04 21:50:03;;;;;;;13.83;13.23;;;6.30;99.90;;;;;;5040636;28;20663;-71
2021/12/04 21:52:32;;;;;;;14.23;13.50;;;6.40;99.90;;;;;;5038987;28;20821;-70
2021/12/04 21:55:06;;;;;;;13.10;12.50;;;6.30;99.90;;;;;;5039704;28;20451;-72
2021/12/04 21:57:52;;;;;;;13.47;12.77;;;6.30;99.90;;;;;;5045450;28;20505;-71
2021/12/04 22:11:20;;;;;;;12.47;11.87;;;6.30;99.90;;;;;;5060267;28;20466;-73
2021/12/04 22:13:53;;;;;;;12.37;11.70;;;6.30;99.90;;;;;;5051179;28;20498;-74
2021/12/04 22:25:18;;;;;;;12.90;12.10;;;6.30;99.90;;;;;;5021573;28;21005;-76
2021/12/04 22:55:36;;;;;;;11.20;10.60;;;6.30;99.90;;;;;;5038947;28;20792;-71
2021/12/04 22:58:10;;;;;;;10.70;10.10;;;6.30;99.90;;;;;;5039200;28;20978;-71
2021/12/04 23:01:01;;;;;;;11.30;10.30;;;6.30;99.90;;;;;;5039452;28;21022;-71
2021/12/04 23:03:36;;;;;;;11.30;10.70;;;6.40;99.90;;;;;;5038654;28;20457;-71
2021/12/04 23:11:40;;;;;;;11.77;11.13;;;6.00;99.90;;;;;;5029803;28;20527;-71
2021/12/04 23:14:08;;;;;;;11.27;10.87;;;5.90;99.90;;;;;;5029679;28;20908;-71
2021/12/04 23:16:46;;;;;;;11.30;10.80;;;5.80;99.90;;;;;;5043023;28;20520;-71
2021/12/04 23:33:15;;;;;;;15.73;14.90;;;5.70;99.90;;;;;;5049545;28;20481;-70
2021/12/04 23:35:52;;;;;;;16.27;15.50;;;5.70;99.90;;;;;;5049283;28;20442;-70
2021/12/04 23:38:41;;;;;;;15.87;14.90;;;5.60;99.90;;;;;;5049272;28;20442;-71
2021/12/04 23:41:45;;;;;;;16.83;15.80;;;5.50;99.90;;;;;;5049445;28;20452;-71
2021/12/04 23:50:37;;;;;;;17.17;16.13;;;5.10;99.90;;;;;;5087125;28;20449;-71
